Aérodrome :
LOGIN :

S'inscrire | Disclaimer

   EN    FR    IT 

 










Légende :    VFR   VFR Marginal   IFR   IFR Intensif   IFR Très Intensif
Visi : 
Plafond : 
>= 8 km
>= 3000ft
5 à 8 km
1000 à 3000 ft
1500m à 5 km
500 à 1000 ft
800 à 1500m
200 à 500 ft
< 800m
< 200 ft
Symboles :   Orages  Brouillard  Fortes neiges  Fortes précipitations  Vent > 20 kt
SIGMETs :   Divers  Orages  Givrage  Turbulence  Onde Orograph.  Cendres Volcan.






- Altitude de l'aérodrome : 100 ft


EBDT - Schaffen

DERNIER METAR :
  • 290855Z AUTO 01026G38KT 9999 FEW044/// SCT160/// 06/M05 Q1028 BLU

METARs EXPIRÉS :
  • 290825Z AUTO 02019G34KT 9999 FEW043/// SCT130/// BKN220/// 07/M03 Q1028 BLU
  • 290755Z AUTO 01019KT 9999 FEW095/// BKN110/// OVC130/// 06/M01 Q1028 BLU
  • 290725Z AUTO 01017KT 9999 FEW090/// BKN100/// OVC120/// 05/M00 Q1028 BLU
  • 290655Z AUTO 36014KT 9999 FEW085/// BKN100/// BKN120/// 04/00 Q1028 BLU
  • 290625Z AUTO 35011KT 9999 FEW075/// BKN100/// OVC130/// 03/00 Q1028 BLU

Prévision TAF périmée.



MET'MAP, la Météo Aéronautique d'un coup d'oeil ! - Copyright ORBIFLY Décembre 2007 - Disclaimer

ORBIFLY MET'MAP TEAM :

Programmation & Développement : Alexandra Zaïnal
Sur une idée originale de : Baudouin d'Aumeries
Assistance à la programmation : Marc-Olivier Méhu
Soutien technique & logistique : Manuel Goepfert

Contact : metmap@orbifly.com




SOURCES & CREDITS :

   NOAA